SPZNA EPKK-EPKK
Flight info
| Callsign | SPZNA |
|---|---|
| Flight time | 0h 52m |
| Altitude | 2000 |
| Route | EPKK/25 DCT |
| Aircraft | PA24/L-SDGRY/S |
Departure
| Time | 2026-05-04 18:17 |
|---|---|
| Airport | Kraków John Paul II International Airport (EPKK) |
Arrival
| Time | 2026-05-04 19:09 |
|---|---|
| Airport | Kraków John Paul II International Airport (EPKK) |
| Time | Latitude | Longitude | Altitude | Speed | Heading |
|---|---|---|---|---|---|
| 2026-05-04 17:58 | 50.07676 | 19.80012 | 794 ft | 0 kts | 348° |
| 2026-05-04 18:06 | 50.07675 | 19.80012 | 794 ft | 0 kts | 348° |
| 2026-05-04 18:14 | 50.07700 | 19.80004 | 794 ft | 9 kts | 348° |
| 2026-05-04 18:14 | 50.07745 | 19.80111 | 794 ft | 19 kts | 78° |
| 2026-05-04 18:14 | 50.07780 | 19.80324 | 794 ft | 17 kts | 50° |
| 2026-05-04 18:15 | 50.07849 | 19.80335 | 795 ft | 0 kts | 348° |
| 2026-05-04 18:16 | 50.07885 | 19.80323 | 794 ft | 13 kts | 347° |
| 2026-05-04 18:16 | 50.08005 | 19.80268 | 794 ft | 21 kts | 313° |
| 2026-05-04 18:17 | 50.07836 | 19.78963 | 927 ft | 94 kts | 256° |
| 2026-05-04 18:17 | 50.07677 | 19.77974 | 1291 ft | 91 kts | 256° |
| 2026-05-04 18:17 | 50.07224 | 19.76127 | 1772 ft | 92 kts | 208° |
| 2026-05-04 18:18 | 50.06577 | 19.76205 | 1933 ft | 98 kts | 165° |
| 2026-05-04 18:18 | 50.05977 | 19.76646 | 2007 ft | 94 kts | 144° |
| 2026-05-04 18:18 | 50.05918 | 19.77651 | 1989 ft | 110 kts | 75° |
| 2026-05-04 18:18 | 50.06174 | 19.78864 | 1948 ft | 121 kts | 76° |
| 2026-05-04 18:19 | 50.05960 | 19.80953 | 2118 ft | 100 kts | 174° |
| 2026-05-04 18:19 | 50.05419 | 19.80538 | 2109 ft | 97 kts | 249° |
| 2026-05-04 18:19 | 50.05714 | 19.79675 | 2012 ft | 112 kts | 339° |
| 2026-05-04 18:20 | 50.06297 | 19.80374 | 1908 ft | 124 kts | 78° |
| 2026-05-04 18:20 | 50.06489 | 19.81627 | 1995 ft | 116 kts | 79° |
| 2026-05-04 18:20 | 50.06667 | 19.82855 | 2005 ft | 117 kts | 83° |
| 2026-05-04 18:20 | 50.06822 | 19.84087 | 1983 ft | 115 kts | 76° |
| 2026-05-04 18:21 | 50.07394 | 19.84846 | 1844 ft | 109 kts | 9° |
| 2026-05-04 18:21 | 50.08099 | 19.84761 | 1673 ft | 99 kts | 341° |
| 2026-05-04 18:21 | 50.08600 | 19.84167 | 1592 ft | 85 kts | 284° |
| 2026-05-04 18:21 | 50.08543 | 19.83317 | 1461 ft | 81 kts | 249° |
| 2026-05-04 18:22 | 50.08363 | 19.82470 | 1293 ft | 84 kts | 253° |
| 2026-05-04 18:22 | 50.08208 | 19.81577 | 1128 ft | 86 kts | 257° |
| 2026-05-04 18:22 | 50.08075 | 19.80664 | 934 ft | 84 kts | 260° |
| 2026-05-04 18:22 | 50.07968 | 19.79882 | 799 ft | 61 kts | 259° |
| 2026-05-04 18:23 | 50.07878 | 19.79214 | 817 ft | 80 kts | 257° |
| 2026-05-04 18:23 | 50.07741 | 19.78217 | 1029 ft | 97 kts | 258° |
| 2026-05-04 18:23 | 50.07601 | 19.77209 | 1411 ft | 94 kts | 258° |
| 2026-05-04 18:23 | 50.07196 | 19.76578 | 1658 ft | 86 kts | 180° |
| 2026-05-04 18:24 | 50.06586 | 19.76853 | 1773 ft | 97 kts | 168° |
| 2026-05-04 18:24 | 50.05941 | 19.77167 | 1950 ft | 96 kts | 165° |
| 2026-05-04 18:24 | 50.05640 | 19.77985 | 1937 ft | 107 kts | 86° |
| 2026-05-04 18:24 | 50.05899 | 19.79136 | 1932 ft | 114 kts | 73° |
| 2026-05-04 18:25 | 50.06169 | 19.80333 | 1899 ft | 118 kts | 73° |
| 2026-05-04 18:25 | 50.06414 | 19.81523 | 1943 ft | 114 kts | 77° |
| 2026-05-04 18:25 | 50.06668 | 19.82681 | 1905 ft | 109 kts | 56° |
| 2026-05-04 18:25 | 50.07320 | 19.83112 | 1727 ft | 105 kts | 351° |
| 2026-05-04 18:26 | 50.07996 | 19.82807 | 1522 ft | 95 kts | 322° |
| 2026-05-04 18:26 | 50.08249 | 19.82035 | 1311 ft | 78 kts | 268° |
| 2026-05-04 18:26 | 50.08151 | 19.81184 | 1080 ft | 85 kts | 257° |
| 2026-05-04 18:26 | 50.08024 | 19.80270 | 869 ft | 84 kts | 258° |
| 2026-05-04 18:27 | 50.07919 | 19.79516 | 795 ft | 56 kts | 256° |
| 2026-05-04 18:27 | 50.07797 | 19.78701 | 865 ft | 93 kts | 257° |
| 2026-05-04 18:27 | 50.07654 | 19.77689 | 1205 ft | 92 kts | 257° |
| 2026-05-04 18:27 | 50.07593 | 19.76723 | 1544 ft | 90 kts | 290° |
| 2026-05-04 18:28 | 50.08094 | 19.76219 | 1756 ft | 98 kts | 357° |
| 2026-05-04 18:28 | 50.08765 | 19.76757 | 1878 ft | 120 kts | 25° |
| 2026-05-04 18:28 | 50.09549 | 19.77329 | 2053 ft | 129 kts | 22° |
| 2026-05-04 18:28 | 50.10368 | 19.77804 | 2135 ft | 124 kts | 14° |
| 2026-05-04 18:29 | 50.11220 | 19.78182 | 2056 ft | 126 kts | 12° |
| 2026-05-04 18:29 | 50.12038 | 19.78531 | 2027 ft | 124 kts | 11° |
| 2026-05-04 18:29 | 50.12824 | 19.79085 | 1907 ft | 130 kts | 50° |
| 2026-05-04 18:29 | 50.12843 | 19.80392 | 1879 ft | 124 kts | 127° |
| 2026-05-04 18:30 | 50.11659 | 19.79822 | 1833 ft | 111 kts | 250° |
| 2026-05-04 18:30 | 50.11404 | 19.78725 | 1818 ft | 108 kts | 250° |
| 2026-05-04 18:30 | 50.11166 | 19.77614 | 1834 ft | 105 kts | 252° |
| 2026-05-04 18:31 | 50.10950 | 19.76609 | 1920 ft | 97 kts | 251° |
| 2026-05-04 18:31 | 50.10724 | 19.75565 | 1846 ft | 102 kts | 253° |
| 2026-05-04 18:31 | 50.10817 | 19.74516 | 1847 ft | 103 kts | 300° |
| 2026-05-04 18:31 | 50.11423 | 19.73962 | 1787 ft | 108 kts | 355° |
| 2026-05-04 18:32 | 50.12051 | 19.74565 | 1750 ft | 113 kts | 65° |
| 2026-05-04 18:32 | 50.12268 | 19.75713 | 1765 ft | 113 kts | 74° |
| 2026-05-04 18:32 | 50.12469 | 19.76927 | 1768 ft | 115 kts | 77° |
| 2026-05-04 18:32 | 50.12638 | 19.78119 | 1824 ft | 113 kts | 79° |
| 2026-05-04 18:33 | 50.12624 | 19.79337 | 1825 ft | 115 kts | 122° |
| 2026-05-04 18:33 | 50.11956 | 19.79802 | 1839 ft | 105 kts | 198° |
| 2026-05-04 18:33 | 50.11544 | 19.79014 | 1860 ft | 99 kts | 256° |
| 2026-05-04 18:33 | 50.11409 | 19.77989 | 1929 ft | 95 kts | 258° |
| 2026-05-04 18:34 | 50.11293 | 19.76972 | 1944 ft | 94 kts | 258° |
| 2026-05-04 18:34 | 50.11182 | 19.75977 | 1961 ft | 94 kts | 259° |
| 2026-05-04 18:34 | 50.11172 | 19.74971 | 1927 ft | 95 kts | 294° |
| 2026-05-04 18:34 | 50.11774 | 19.74533 | 1868 ft | 106 kts | 6° |
| 2026-05-04 18:35 | 50.12302 | 19.75264 | 1859 ft | 111 kts | 72° |
| 2026-05-04 18:35 | 50.12446 | 19.76473 | 1893 ft | 111 kts | 81° |
| 2026-05-04 18:35 | 50.12581 | 19.77638 | 1938 ft | 111 kts | 82° |
| 2026-05-04 18:35 | 50.12720 | 19.78846 | 1967 ft | 113 kts | 81° |
| 2026-05-04 18:36 | 50.12588 | 19.79998 | 1956 ft | 114 kts | 142° |
| 2026-05-04 18:36 | 50.11904 | 19.80002 | 1979 ft | 102 kts | 225° |
| 2026-05-04 18:36 | 50.11657 | 19.79009 | 2017 ft | 93 kts | 259° |
| 2026-05-04 18:36 | 50.11550 | 19.77995 | 2017 ft | 97 kts | 259° |
| 2026-05-04 18:37 | 50.11482 | 19.77312 | 2032 ft | 95 kts | 258° |
| 2026-05-04 18:37 | 50.11373 | 19.76296 | 2036 ft | 96 kts | 257° |
| 2026-05-04 18:37 | 50.11245 | 19.75288 | 2014 ft | 94 kts | 258° |
| 2026-05-04 18:37 | 50.11411 | 19.74357 | 1934 ft | 101 kts | 320° |
| 2026-05-04 18:38 | 50.12264 | 19.74771 | 1822 ft | 116 kts | 66° |
| 2026-05-04 18:38 | 50.12378 | 19.75597 | 1847 ft | 114 kts | 80° |
| 2026-05-04 18:38 | 50.12520 | 19.76774 | 1921 ft | 110 kts | 80° |
| 2026-05-04 18:38 | 50.12670 | 19.77971 | 1968 ft | 111 kts | 82° |
| 2026-05-04 18:39 | 50.12797 | 19.79159 | 2004 ft | 115 kts | 82° |
| 2026-05-04 18:39 | 50.12579 | 19.80265 | 1985 ft | 113 kts | 153° |
| 2026-05-04 18:39 | 50.11903 | 19.80099 | 2031 ft | 100 kts | 232° |
| 2026-05-04 18:39 | 50.11723 | 19.79066 | 2010 ft | 99 kts | 260° |
| 2026-05-04 18:40 | 50.11615 | 19.78032 | 2041 ft | 93 kts | 258° |
| 2026-05-04 18:40 | 50.11516 | 19.77030 | 2016 ft | 95 kts | 259° |
| 2026-05-04 18:40 | 50.11422 | 19.76014 | 2019 ft | 96 kts | 259° |
| 2026-05-04 18:40 | 50.11610 | 19.75085 | 1965 ft | 100 kts | 324° |
| 2026-05-04 18:41 | 50.12294 | 19.75252 | 1861 ft | 115 kts | 43° |
| 2026-05-04 18:41 | 50.12518 | 19.76441 | 1860 ft | 115 kts | 84° |
| 2026-05-04 18:41 | 50.12638 | 19.77630 | 1951 ft | 113 kts | 82° |
| 2026-05-04 18:41 | 50.12744 | 19.78828 | 2003 ft | 113 kts | 85° |
| 2026-05-04 18:42 | 50.12678 | 19.80032 | 2018 ft | 113 kts | 121° |
| 2026-05-04 18:42 | 50.12034 | 19.80543 | 1946 ft | 113 kts | 198° |
| 2026-05-04 18:42 | 50.11590 | 19.79697 | 1989 ft | 101 kts | 258° |
| 2026-05-04 18:42 | 50.11482 | 19.78628 | 1998 ft | 99 kts | 260° |
| 2026-05-04 18:43 | 50.11396 | 19.77569 | 2002 ft | 100 kts | 262° |
| 2026-05-04 18:43 | 50.11340 | 19.76500 | 2025 ft | 98 kts | 262° |
| 2026-05-04 18:43 | 50.11297 | 19.75449 | 2003 ft | 98 kts | 274° |
| 2026-05-04 18:43 | 50.11706 | 19.74611 | 1861 ft | 109 kts | 341° |
| 2026-05-04 18:44 | 50.12372 | 19.75087 | 1825 ft | 115 kts | 60° |
| 2026-05-04 18:44 | 50.12483 | 19.75893 | 1839 ft | 116 kts | 84° |
| 2026-05-04 18:44 | 50.12585 | 19.77519 | 1896 ft | 114 kts | 86° |
| 2026-05-04 18:44 | 50.12658 | 19.78762 | 1942 ft | 114 kts | 87° |
| 2026-05-04 18:45 | 50.12593 | 19.79953 | 1980 ft | 111 kts | 131° |
| 2026-05-04 18:45 | 50.11913 | 19.80108 | 1932 ft | 107 kts | 219° |
| 2026-05-04 18:45 | 50.11692 | 19.79066 | 1940 ft | 102 kts | 265° |
| 2026-05-04 18:45 | 50.11642 | 19.77995 | 1983 ft | 98 kts | 264° |
| 2026-05-04 18:46 | 50.11610 | 19.76932 | 2000 ft | 98 kts | 264° |
| 2026-05-04 18:46 | 50.11574 | 19.75873 | 2007 ft | 98 kts | 263° |
| 2026-05-04 18:46 | 50.11639 | 19.74819 | 1935 ft | 105 kts | 300° |
| 2026-05-04 18:46 | 50.12332 | 19.74526 | 1827 ft | 117 kts | 22° |
| 2026-05-04 18:47 | 50.12694 | 19.75599 | 1808 ft | 119 kts | 86° |
| 2026-05-04 18:47 | 50.12748 | 19.76818 | 1913 ft | 110 kts | 87° |
| 2026-05-04 18:47 | 50.12791 | 19.78021 | 1943 ft | 113 kts | 90° |
| 2026-05-04 18:47 | 50.12836 | 19.79245 | 1974 ft | 114 kts | 90° |
| 2026-05-04 18:48 | 50.12551 | 19.80316 | 2009 ft | 109 kts | 150° |
| 2026-05-04 18:48 | 50.11876 | 19.80215 | 1997 ft | 104 kts | 230° |
| 2026-05-04 18:48 | 50.11694 | 19.79205 | 2067 ft | 93 kts | 261° |
| 2026-05-04 18:48 | 50.11635 | 19.78210 | 2073 ft | 96 kts | 264° |
| 2026-05-04 18:49 | 50.11601 | 19.77146 | 2048 ft | 100 kts | 263° |
| 2026-05-04 18:49 | 50.11553 | 19.76092 | 2092 ft | 95 kts | 263° |
| 2026-05-04 18:49 | 50.11660 | 19.75062 | 1999 ft | 106 kts | 299° |
| 2026-05-04 18:49 | 50.12338 | 19.74543 | 1883 ft | 117 kts | 0° |
| 2026-05-04 18:50 | 50.12925 | 19.75340 | 1809 ft | 123 kts | 75° |
| 2026-05-04 18:50 | 50.12947 | 19.76643 | 1862 ft | 114 kts | 93° |
| 2026-05-04 18:50 | 50.12933 | 19.77845 | 1943 ft | 113 kts | 93° |
| 2026-05-04 18:50 | 50.12918 | 19.79087 | 1953 ft | 114 kts | 95° |
| 2026-05-04 18:51 | 50.12713 | 19.80243 | 1956 ft | 114 kts | 136° |
| 2026-05-04 18:51 | 50.12037 | 19.80515 | 2034 ft | 103 kts | 207° |
| 2026-05-04 18:51 | 50.11659 | 19.79632 | 2000 ft | 102 kts | 264° |
| 2026-05-04 18:51 | 50.11610 | 19.78524 | 1983 ft | 102 kts | 264° |
| 2026-05-04 18:52 | 50.11558 | 19.77458 | 2013 ft | 100 kts | 263° |
| 2026-05-04 18:52 | 50.11503 | 19.76352 | 2010 ft | 101 kts | 263° |
| 2026-05-04 18:52 | 50.11507 | 19.75279 | 1999 ft | 101 kts | 288° |
| 2026-05-04 18:52 | 50.12075 | 19.74594 | 1919 ft | 112 kts | 345° |
| 2026-05-04 18:53 | 50.12782 | 19.75015 | 1865 ft | 119 kts | 50° |
| 2026-05-04 18:53 | 50.12942 | 19.76248 | 1867 ft | 116 kts | 89° |
| 2026-05-04 18:53 | 50.12974 | 19.77439 | 1975 ft | 112 kts | 89° |
| 2026-05-04 18:53 | 50.13007 | 19.78689 | 1974 ft | 115 kts | 92° |
| 2026-05-04 18:54 | 50.12895 | 19.79884 | 1978 ft | 116 kts | 127° |
| 2026-05-04 18:54 | 50.12207 | 19.80261 | 2021 ft | 106 kts | 202° |
| 2026-05-04 18:54 | 50.11836 | 19.79348 | 1947 ft | 109 kts | 265° |
| 2026-05-04 18:54 | 50.11805 | 19.78193 | 1979 ft | 103 kts | 266° |
| 2026-05-04 18:55 | 50.11778 | 19.77078 | 1981 ft | 103 kts | 265° |
| 2026-05-04 18:55 | 50.11834 | 19.74864 | 1976 ft | 103 kts | 296° |
| 2026-05-04 18:55 | 50.12499 | 19.74540 | 1868 ft | 116 kts | 23° |
| 2026-05-04 18:56 | 50.12808 | 19.75642 | 1815 ft | 120 kts | 92° |
| 2026-05-04 18:56 | 50.12801 | 19.76860 | 1944 ft | 110 kts | 92° |
| 2026-05-04 18:56 | 50.12773 | 19.78079 | 1944 ft | 115 kts | 95° |
| 2026-05-04 18:56 | 50.12737 | 19.79316 | 1992 ft | 112 kts | 97° |
| 2026-05-04 18:57 | 50.12292 | 19.80227 | 1953 ft | 113 kts | 170° |
| 2026-05-04 18:57 | 50.11693 | 19.79698 | 1998 ft | 102 kts | 253° |
| 2026-05-04 18:57 | 50.11643 | 19.78626 | 2039 ft | 95 kts | 266° |
| 2026-05-04 18:57 | 50.11622 | 19.77603 | 2046 ft | 96 kts | 265° |
| 2026-05-04 18:58 | 50.11617 | 19.76508 | 1998 ft | 103 kts | 267° |
| 2026-05-04 18:58 | 50.11614 | 19.75403 | 2016 ft | 101 kts | 266° |
| 2026-05-04 18:58 | 50.11861 | 19.74417 | 1920 ft | 111 kts | 326° |
| 2026-05-04 18:58 | 50.12556 | 19.74662 | 1848 ft | 119 kts | 55° |
| 2026-05-04 18:59 | 50.12427 | 19.75847 | 1749 ft | 123 kts | 145° |
| 2026-05-04 18:59 | 50.11712 | 19.76430 | 1848 ft | 108 kts | 156° |
| 2026-05-04 18:59 | 50.11058 | 19.76960 | 1901 ft | 106 kts | 157° |
| 2026-05-04 18:59 | 50.10458 | 19.77609 | 1902 ft | 105 kts | 127° |
| 2026-05-04 19:00 | 50.10395 | 19.78761 | 1898 ft | 111 kts | 91° |
| 2026-05-04 19:00 | 50.10408 | 19.79940 | 1926 ft | 114 kts | 92° |
| 2026-05-04 19:00 | 50.10410 | 19.81191 | 1938 ft | 117 kts | 92° |
| 2026-05-04 19:00 | 50.10316 | 19.82411 | 1952 ft | 111 kts | 125° |
| 2026-05-04 19:01 | 50.09680 | 19.82789 | 1651 ft | 98 kts | 180° |
| 2026-05-04 19:01 | 50.09045 | 19.82796 | 1394 ft | 84 kts | 191° |
| 2026-05-04 19:01 | 50.08558 | 19.82402 | 1298 ft | 82 kts | 224° |
| 2026-05-04 19:01 | 50.08244 | 19.81606 | 1146 ft | 90 kts | 249° |
| 2026-05-04 19:02 | 50.08093 | 19.80735 | 940 ft | 74 kts | 256° |
| 2026-05-04 19:02 | 50.07996 | 19.80036 | 829 ft | 59 kts | 255° |
| 2026-05-04 19:02 | 50.07907 | 19.79455 | 795 ft | 68 kts | 256° |
| 2026-05-04 19:02 | 50.07785 | 19.78558 | 921 ft | 96 kts | 256° |
| 2026-05-04 19:03 | 50.07650 | 19.77557 | 1201 ft | 90 kts | 256° |
| 2026-05-04 19:03 | 50.07577 | 19.76554 | 1387 ft | 98 kts | 288° |
| 2026-05-04 19:03 | 50.08151 | 19.76030 | 1591 ft | 108 kts | 351° |
| 2026-05-04 19:03 | 50.08902 | 19.75847 | 1822 ft | 108 kts | 349° |
| 2026-05-04 19:04 | 50.09561 | 19.76168 | 1887 ft | 112 kts | 61° |
| 2026-05-04 19:04 | 50.09712 | 19.77378 | 1940 ft | 115 kts | 83° |
| 2026-05-04 19:04 | 50.09914 | 19.78572 | 2021 ft | 112 kts | 57° |
| 2026-05-04 19:04 | 50.10590 | 19.78950 | 2050 ft | 109 kts | 341° |
| 2026-05-04 19:05 | 50.11010 | 19.78124 | 2054 ft | 101 kts | 263° |
| 2026-05-04 19:05 | 50.10560 | 19.77344 | 1952 ft | 110 kts | 187° |
| 2026-05-04 19:05 | 50.09989 | 19.78014 | 1915 ft | 115 kts | 106° |
| 2026-05-04 19:05 | 50.10164 | 19.79253 | 1922 ft | 119 kts | 75° |
| 2026-05-04 19:06 | 50.10438 | 19.80459 | 1971 ft | 119 kts | 71° |
| 2026-05-04 19:06 | 50.10704 | 19.81672 | 2046 ft | 115 kts | 73° |
| 2026-05-04 19:06 | 50.10961 | 19.82856 | 2054 ft | 116 kts | 73° |
| 2026-05-04 19:06 | 50.11199 | 19.84071 | 2057 ft | 119 kts | 76° |
| 2026-05-04 19:07 | 50.11283 | 19.85289 | 2126 ft | 108 kts | 117° |
| 2026-05-04 19:07 | 50.10669 | 19.85887 | 1998 ft | 105 kts | 171° |
| 2026-05-04 19:07 | 50.09995 | 19.86133 | 1991 ft | 94 kts | 175° |
| 2026-05-04 19:07 | 50.09365 | 19.86008 | 1946 ft | 93 kts | 210° |
| 2026-05-04 19:08 | 50.08921 | 19.85295 | 1892 ft | 94 kts | 239° |
| 2026-05-04 19:08 | 50.08653 | 19.84321 | 1726 ft | 92 kts | 249° |
| 2026-05-04 19:08 | 50.08478 | 19.83377 | 1422 ft | 91 kts | 253° |
| 2026-05-04 19:08 | 50.08323 | 19.82417 | 1228 ft | 93 kts | 255° |
| 2026-05-04 19:09 | 50.08186 | 19.81454 | 1033 ft | 86 kts | 257° |
| 2026-05-04 19:09 | 50.08071 | 19.80624 | 909 ft | 75 kts | 257° |
| 2026-05-04 19:09 | 50.07961 | 19.79849 | 806 ft | 70 kts | 257° |
| 2026-05-04 19:09 | 50.07879 | 19.79240 | 795 ft | 30 kts | 259° |
| 2026-05-04 19:10 | 50.07841 | 19.79080 | 795 ft | 12 kts | 216° |
| 2026-05-04 19:10 | 50.07735 | 19.79093 | 795 ft | 11 kts | 167° |
| 2026-05-04 19:10 | 50.07641 | 19.79127 | 794 ft | 17 kts | 158° |
| 2026-05-04 19:10 | 50.07635 | 19.79313 | 794 ft | 21 kts | 78° |
| 2026-05-04 19:11 | 50.07669 | 19.79556 | 794 ft | 25 kts | 78° |
| 2026-05-04 19:11 | 50.07703 | 19.79808 | 794 ft | 17 kts | 79° |
| 2026-05-04 19:11 | 50.07615 | 19.79909 | 794 ft | 18 kts | 132° |
| 2026-05-04 19:11 | 50.07634 | 19.80026 | 794 ft | 10 kts | 347° |
| 2026-05-04 19:12 | 50.07677 | 19.80012 | 794 ft | 0 kts | 348° |